Time;durP1;ratioP1;P1;durP2;ratioP2;P2;SDS_P1;SDS_P2;PMS_P1;PMS_P2;Temp;Humidity;BMP_temperature;BMP_pressure;BME280_temperature;BME280_humidity;BME280_pressure;Samples;Min_cycle;Max_cycle;Signal;HPM_P1;HPM_P2
2022/01/14 00:00:06;;;;;;;40.43;20.20;;;;;;;-2.43;100.00;97124.41;5111165;28;20269;-57
2022/01/14 00:02:32;;;;;;;43.77;19.93;;;;;;;-2.43;100.00;97126.25;5110855;28;20204;-54
2022/01/14 00:04:57;;;;;;;44.00;21.20;;;;;;;-2.43;100.00;97127.06;5111028;28;20260;-73
2022/01/14 00:07:24;;;;;;;42.23;20.30;;;;;;;-2.42;100.00;97125.97;5110847;28;20277;-51
2022/01/14 00:09:49;;;;;;;41.77;20.43;;;;;;;-2.41;100.00;97129.47;5110946;28;20208;-51
2022/01/14 00:12:18;;;;;;;44.93;21.47;;;;;;;-2.43;100.00;97128.94;5094558;28;20193;-53
2022/01/14 00:14:57;;;;;;;46.07;22.57;;;;;;;-2.47;100.00;97126.03;5110929;28;20216;-55
2022/01/14 00:17:22;;;;;;;48.13;23.30;;;;;;;-2.48;100.00;97137.00;5110827;28;20518;-54
2022/01/14 00:19:47;;;;;;;45.10;21.67;;;;;;;-2.50;100.00;97133.78;5111169;28;20230;-55
2022/01/14 00:22:15;;;;;;;47.40;22.17;;;;;;;-2.55;100.00;97125.81;5110367;28;20192;-58
2022/01/14 00:33:05;;;;;;;49.23;23.60;;;;;;;-2.72;100.00;97122.69;5094785;28;20227;-52
2022/01/14 00:35:31;;;;;;;49.23;22.83;;;;;;;-2.74;100.00;97119.53;5110591;28;20201;-55
2022/01/14 00:37:57;;;;;;;50.80;24.67;;;;;;;-2.79;100.00;97116.84;5110379;28;20208;-53
2022/01/14 00:40:23;;;;;;;52.63;24.90;;;;;;;-2.81;100.00;97119.03;5110772;28;20610;-54
2022/01/14 00:42:49;;;;;;;56.87;26.10;;;;;;;-2.84;100.00;97119.56;5110693;28;20204;-49
2022/01/14 00:45:14;;;;;;;60.27;25.87;;;;;;;-2.84;100.00;97111.56;5109868;28;20287;-50
2022/01/14 00:47:40;;;;;;;57.40;25.10;;;;;;;-2.86;100.00;97101.13;5110922;28;20183;-49
2022/01/14 00:50:09;;;;;;;57.77;25.87;;;;;;;-2.84;100.00;97100.88;5110687;28;20204;-53
2022/01/14 00:52:39;;;;;;;54.70;25.10;;;;;;;-2.80;100.00;97096.56;5110007;28;20201;-50
2022/01/14 00:55:06;;;;;;;57.23;25.60;;;;;;;-2.81;100.00;97103.00;5110498;28;20208;-52
2022/01/14 01:00:17;;;;;;;55.60;26.10;;;;;;;-2.85;100.00;97096.59;5094049;28;20286;-59
2022/01/14 01:02:43;;;;;;;55.90;24.80;;;;;;;-2.85;100.00;97097.38;5110125;28;20200;-54
2022/01/14 01:05:08;;;;;;;53.53;24.00;;;;;;;-2.86;100.00;97089.63;5110106;28;20257;-56
2022/01/14 01:07:34;;;;;;;54.37;24.40;;;;;;;-2.84;100.00;97092.84;5110706;28;20196;-53
2022/01/14 01:09:59;;;;;;;55.67;24.00;;;;;;;-2.87;100.00;97082.72;5110267;28;20207;-50
2022/01/14 01:12:35;;;;;;;49.70;23.90;;;;;;;-2.89;100.00;97084.84;5110189;28;20176;-53
2022/01/14 01:15:09;;;;;;;53.47;24.87;;;;;;;-2.89;100.00;97079.50;5110014;28;20295;-54
2022/01/14 01:17:35;;;;;;;42.40;21.23;;;;;;;-2.86;100.00;97068.28;5110456;28;20188;-67
2022/01/14 01:20:03;;;;;;;47.77;22.53;;;;;;;-2.87;100.00;97072.84;5109864;28;20202;-55
2022/01/14 01:22:29;;;;;;;44.43;20.67;;;;;;;-2.87;100.00;97082.72;5110223;28;20192;-58
2022/01/14 01:24:54;;;;;;;42.80;20.13;;;;;;;-2.88;100.00;97076.56;5109797;28;20204;-59
2022/01/14 01:27:21;;;;;;;40.83;20.50;;;;;;;-2.88;100.00;97083.78;5109451;28;20222;-59
2022/01/14 01:29:53;;;;;;;39.27;19.60;;;;;;;-2.90;100.00;97088.59;5109450;28;20203;-59
2022/01/14 01:32:19;;;;;;;40.17;19.70;;;;;;;-2.92;100.00;97080.84;5114021;28;20203;-57
2022/01/14 01:34:44;;;;;;;39.73;19.03;;;;;;;-2.93;100.00;97079.28;5113348;28;20216;-71
2022/01/14 01:37:10;;;;;;;42.93;20.20;;;;;;;-2.94;100.00;97084.88;5112919;28;20187;-73
2022/01/14 01:39:36;;;;;;;36.27;18.60;;;;;;;-2.93;100.00;97079.28;5113558;28;20197;-51
2022/01/14 01:42:08;;;;;;;42.57;19.77;;;;;;;-2.93;100.00;97073.13;5113136;28;20196;-54
2022/01/14 01:44:35;;;;;;;37.67;19.43;;;;;;;-2.90;100.00;97077.91;5113291;28;20208;-54
2022/01/14 01:47:01;;;;;;;41.47;19.63;;;;;;;-2.91;100.00;97085.16;5112899;28;20204;-54
2022/01/14 01:49:29;;;;;;;39.90;18.60;;;;;;;-2.92;100.00;97078.19;5113202;28;20207;-54
2022/01/14 01:51:56;;;;;;;40.07;18.57;;;;;;;-2.94;100.00;97082.22;5096018;28;20665;-53
2022/01/14 01:54:22;;;;;;;41.77;19.07;;;;;;;-2.96;100.00;97081.72;5113278;28;20208;-72
2022/01/14 01:56:51;;;;;;;40.97;19.70;;;;;;;-2.97;100.00;97077.41;5096441;28;20268;-71
2022/01/14 01:59:22;;;;;;;37.27;18.90;;;;;;;-2.97;100.00;97082.75;5113365;28;20243;-71
2022/01/14 02:01:48;;;;;;;46.07;20.30;;;;;;;-2.95;100.00;97085.97;5113138;28;20684;-79
2022/01/14 02:04:13;;;;;;;35.07;17.97;;;;;;;-2.98;100.00;97083.84;5112869;28;20168;-78
2022/01/14 02:06:39;;;;;;;37.27;18.90;;;;;;;-2.99;100.00;97087.59;5113185;28;20192;-80
2022/01/14 02:09:07;;;;;;;35.00;18.50;;;;;;;-3.04;100.00;97076.91;5112450;28;20238;-80
2022/01/14 02:11:33;;;;;;;38.13;18.37;;;;;;;-3.11;100.00;97071.06;5113146;28;20249;-83
2022/01/14 02:14:01;;;;;;;35.50;17.27;;;;;;;-3.12;100.00;97064.16;5112886;28;20212;-57
2022/01/14 02:16:59;;;;;;;34.60;17.30;;;;;;;-3.14;100.00;97061.75;5112609;28;20192;-55
2022/01/14 02:19:28;;;;;;;38.07;18.17;;;;;;;-3.10;100.00;97062.00;5096584;28;20197;-54
2022/01/14 02:22:13;;;;;;;36.17;17.77;;;;;;;-3.08;100.00;97065.19;5113039;28;20203;-59
2022/01/14 02:27:13;;;;;;;36.43;17.40;;;;;;;-3.06;100.00;97063.06;5096499;28;20196;-57
2022/01/14 02:29:38;;;;;;;32.93;17.03;;;;;;;-3.05;100.00;97062.78;5095658;28;20295;-56
2022/01/14 02:32:05;;;;;;;32.90;16.90;;;;;;;-3.03;100.00;97067.84;5112153;28;20283;-55
2022/01/14 02:34:30;;;;;;;35.93;18.77;;;;;;;-2.98;100.00;97065.16;5112429;28;20219;-56
2022/01/14 02:36:56;;;;;;;38.97;19.10;;;;;;;-2.97;100.00;97056.84;5112461;28;20196;-56
2022/01/14 02:39:21;;;;;;;34.63;18.10;;;;;;;-2.96;100.00;97055.00;5112461;28;20607;-57
2022/01/14 02:41:49;;;;;;;33.93;18.33;;;;;;;-2.98;100.00;97043.78;5111023;28;20201;-54
2022/01/14 02:44:23;;;;;;;37.83;19.43;;;;;;;-2.97;100.00;97040.03;5112187;28;20208;-53
2022/01/14 02:46:56;;;;;;;42.00;20.37;;;;;;;-2.98;100.00;97038.44;5112591;28;20564;-57
2022/01/14 02:49:25;;;;;;;41.10;20.83;;;;;;;-3.00;100.00;97029.88;5112198;28;20200;-73
2022/01/14 02:51:51;;;;;;;34.43;17.63;;;;;;;-2.98;100.00;97038.44;5112596;28;20282;-51
2022/01/14 02:54:21;;;;;;;36.90;18.00;;;;;;;-2.95;100.00;97032.53;5112169;28;20224;-50
2022/01/14 02:56:50;;;;;;;35.63;18.30;;;;;;;-2.98;100.00;97038.44;5111947;28;20230;-48
2022/01/14 02:59:17;;;;;;;34.60;17.83;;;;;;;-2.98;100.00;97028.56;5111670;28;20215;-50
2022/01/14 03:01:45;;;;;;;30.33;16.83;;;;;;;-2.98;100.00;97035.75;5112061;28;20199;-49
2022/01/14 03:04:13;;;;;;;37.97;18.17;;;;;;;-3.00;100.00;97036.03;5111955;28;20212;-47
2022/01/14 03:06:40;;;;;;;34.53;17.47;;;;;;;-2.95;100.00;97037.88;5111896;28;20645;-71
2022/01/14 03:09:05;;;;;;;34.57;18.40;;;;;;;-2.95;100.00;97027.97;5111784;28;20254;-52
2022/01/14 03:11:36;;;;;;;37.47;17.93;;;;;;;-2.93;100.00;97030.38;5094953;28;20205;-51
2022/01/14 03:14:03;;;;;;;42.63;21.10;;;;;;;-2.93;100.00;97019.69;5094255;28;20283;-51
2022/01/14 03:16:37;;;;;;;38.77;19.80;;;;;;;-2.92;100.00;97016.75;5111397;28;20540;-52
2022/01/14 03:19:07;;;;;;;37.30;19.20;;;;;;;-2.88;100.00;97008.97;5111533;28;20200;-51
2022/01/14 03:21:39;;;;;;;38.17;19.10;;;;;;;-2.89;100.00;97004.69;5111225;28;20200;-50
2022/01/14 03:24:17;;;;;;;44.20;20.57;;;;;;;-2.89;100.00;97004.69;5111840;28;20253;-48
2022/01/14 03:26:45;;;;;;;41.87;20.93;;;;;;;-2.88;100.00;96995.63;5112019;28;20196;-75
2022/01/14 03:29:12;;;;;;;41.83;21.80;;;;;;;-2.85;100.00;96997.75;5094494;28;20563;-68
2022/01/14 03:31:37;;;;;;;45.83;21.33;;;;;;;-2.87;100.00;97006.03;5111702;28;20215;-68
2022/01/14 03:34:03;;;;;;;42.93;21.13;;;;;;;-2.92;100.00;97000.72;5095673;28;20212;-67
2022/01/14 03:36:28;;;;;;;39.87;20.67;;;;;;;-2.93;100.00;96995.63;5112091;28;20208;-67
2022/01/14 03:38:53;;;;;;;45.50;20.73;;;;;;;-2.96;100.00;96991.66;5111760;28;20226;-65
2022/01/14 03:41:18;;;;;;;44.73;20.40;;;;;;;-2.99;100.00;96999.44;5111041;28;20231;-65
2022/01/14 03:43:44;;;;;;;44.37;21.37;;;;;;;-3.02;100.00;96990.13;5111296;28;20201;-53
2022/01/14 03:46:10;;;;;;;44.53;21.00;;;;;;;-3.02;100.00;96991.97;5111192;28;20298;-60
2022/01/14 03:48:35;;;;;;;43.07;20.43;;;;;;;-3.05;100.00;96996.00;5094518;28;20339;-52
2022/01/14 03:51:00;;;;;;;43.43;21.63;;;;;;;-3.05;100.00;96997.88;5110923;28;20349;-54
2022/01/14 03:53:26;;;;;;;39.37;19.93;;;;;;;-3.07;100.00;96986.69;5110438;28;20204;-55
2022/01/14 03:55:52;;;;;;;40.87;19.17;;;;;;;-3.06;100.00;96985.59;5111157;28;20196;-54
2022/01/14 03:58:17;;;;;;;36.47;19.10;;;;;;;-3.09;100.00;96984.28;5111064;28;20204;-54
2022/01/14 04:00:42;;;;;;;46.73;21.57;;;;;;;-3.10;100.00;96982.66;5111083;28;20196;-53
2022/01/14 04:03:08;;;;;;;44.90;20.83;;;;;;;-3.09;100.00;96978.13;5110851;28;20204;-53
2022/01/14 04:05:34;;;;;;;46.63;21.80;;;;;;;-3.10;100.00;96973.88;5110952;28;20223;-72
2022/01/14 04:08:00;;;;;;;43.63;19.87;;;;;;;-3.10;100.00;96974.66;5110449;28;20187;-66
2022/01/14 04:10:26;;;;;;;39.77;19.73;;;;;;;-3.10;100.00;96980.00;5111163;28;20201;-65
2022/01/14 04:15:37;;;;;;;44.23;21.07;;;;;;;-3.11;100.00;96977.59;5095411;28;20234;-67
2022/01/14 04:18:05;;;;;;;40.77;21.77;;;;;;;-3.10;100.00;96976.56;5110498;28;20204;-67
2022/01/14 04:20:31;;;;;;;41.20;20.37;;;;;;;-3.14;100.00;96975.50;5094838;28;20283;-56
2022/01/14 04:22:56;;;;;;;39.57;20.33;;;;;;;-3.15;100.00;96968.56;5093604;28;20231;-59
2022/01/14 04:25:23;;;;;;;42.87;20.33;;;;;;;-3.18;100.00;96963.78;5111051;28;20250;-59
2022/01/14 04:27:49;;;;;;;41.53;19.30;;;;;;;-3.21;100.00;96964.34;5111106;28;20200;-58
2022/01/14 04:30:14;;;;;;;38.60;19.13;;;;;;;-3.23;100.00;96964.63;5110569;28;20311;-56
2022/01/14 04:32:40;;;;;;;39.90;20.23;;;;;;;-3.25;100.00;96966.75;5110766;28;20315;-59
2022/01/14 04:35:06;;;;;;;39.87;19.37;;;;;;;-3.26;100.00;96965.16;5110483;28;20284;-59
2022/01/14 04:37:31;;;;;;;39.13;19.70;;;;;;;-3.27;100.00;96965.44;5110836;28;20275;-59
2022/01/14 04:39:56;;;;;;;41.17;19.93;;;;;;;-3.26;100.00;96975.03;5111084;28;20635;-60
2022/01/14 04:42:23;;;;;;;43.07;20.73;;;;;;;-3.29;100.00;96964.94;5110581;28;20193;-76
2022/01/14 04:44:53;;;;;;;41.77;19.73;;;;;;;-3.31;100.00;96962.53;5110021;28;20192;-76
2022/01/14 04:47:30;;;;;;;39.43;19.93;;;;;;;-3.30;100.00;96957.97;5110059;28;20200;-77
2022/01/14 04:49:55;;;;;;;43.27;20.03;;;;;;;-3.31;100.00;96959.06;5110052;28;20258;-76
2022/01/14 04:52:21;;;;;;;41.70;20.00;;;;;;;-3.33;100.00;96955.84;5110503;28;20192;-75
2022/01/14 04:54:47;;;;;;;38.77;18.90;;;;;;;-3.36;100.00;96956.44;5110216;28;20219;-77
2022/01/14 04:57:15;;;;;;;45.03;19.60;;;;;;;-3.38;100.00;96954.81;5110293;28;20249;-60
2022/01/14 04:59:41;;;;;;;38.43;19.83;;;;;;;-3.39;100.00;96952.41;5110444;28;20207;-59
2022/01/14 05:02:06;;;;;;;43.23;19.33;;;;;;;-3.38;100.00;96947.88;5110161;28;20537;-59
2022/01/14 05:04:32;;;;;;;37.07;19.07;;;;;;;-3.40;100.00;96950.84;5108992;28;20206;-59
2022/01/14 05:07:02;;;;;;;36.90;18.73;;;;;;;-3.39;100.00;96951.63;5109712;28;20238;-59
2022/01/14 05:09:34;;;;;;;36.93;17.83;;;;;;;-3.40;100.00;96955.38;5109749;28;20199;-55
2022/01/14 05:12:06;;;;;;;38.40;18.50;;;;;;;-3.38;100.00;96960.16;5110163;28;20218;-57
2022/01/14 05:14:32;;;;;;;36.67;17.73;;;;;;;-3.34;100.00;96948.94;5109869;28;20196;-56
2022/01/14 05:16:57;;;;;;;38.43;19.13;;;;;;;-3.38;100.00;96953.22;5109778;28;20245;-57
2022/01/14 05:19:22;;;;;;;36.20;18.23;;;;;;;-3.39;100.00;96949.75;5109649;28;20196;-55
2022/01/14 05:21:48;;;;;;;36.93;19.67;;;;;;;-3.36;100.00;96951.09;5110045;28;20196;-56
2022/01/14 05:24:13;;;;;;;41.00;19.77;;;;;;;-3.36;100.00;96956.44;5110303;28;20531;-55
2022/01/14 05:26:38;;;;;;;37.47;18.90;;;;;;;-3.38;100.00;96949.47;5109855;28;20242;-54
2022/01/14 05:29:04;;;;;;;36.17;17.83;;;;;;;-3.32;100.00;96965.47;5109345;28;20632;-55
2022/01/14 05:31:47;;;;;;;38.10;18.20;;;;;;;-3.33;100.00;96956.66;5109739;28;20196;-55
2022/01/14 05:34:13;;;;;;;35.90;17.67;;;;;;;-3.34;100.00;96949.72;5109497;28;20251;-66
2022/01/14 05:36:38;;;;;;;36.87;18.77;;;;;;;-3.32;100.00;96954.81;5109661;28;20597;-74
2022/01/14 05:39:04;;;;;;;35.70;17.60;;;;;;;-3.33;100.00;96953.19;5092333;28;20207;-75
2022/01/14 05:41:29;;;;;;;34.77;17.93;;;;;;;-3.33;100.00;96950.50;5109465;28;20200;-74
2022/01/14 05:43:55;;;;;;;36.03;17.17;;;;;;;-3.29;100.00;96948.91;5109911;28;20204;-74
2022/01/14 05:46:20;;;;;;;27.97;15.87;;;;;;;-3.28;100.00;96947.84;5109459;28;20196;-74
2022/01/14 05:48:45;;;;;;;31.47;15.97;;;;;;;-3.29;100.00;96947.03;5109596;28;20228;-74
2022/01/14 05:51:11;;;;;;;29.50;15.83;;;;;;;-3.28;100.00;96945.16;5092550;28;20198;-74
2022/01/14 05:53:36;;;;;;;33.73;16.10;;;;;;;-3.27;100.00;96950.22;5109608;28;20280;-61
2022/01/14 05:56:01;;;;;;;29.83;16.70;;;;;;;-3.26;100.00;96951.81;5109173;28;20198;-75
2022/01/14 05:58:27;;;;;;;33.30;17.17;;;;;;;-3.24;100.00;96948.88;5109651;28;20192;-75
2022/01/14 06:00:52;;;;;;;35.23;18.13;;;;;;;-3.23;100.00;96956.59;5109571;28;20208;-77
2022/01/14 06:03:18;;;;;;;31.57;16.87;;;;;;;-3.24;100.00;96960.34;5109312;28;20200;-75
2022/01/14 06:05:43;;;;;;;34.50;17.13;;;;;;;-3.23;100.00;96961.13;5093131;28;20211;-75
2022/01/14 06:08:08;;;;;;;32.50;17.33;;;;;;;-3.24;100.00;96963.03;5109181;28;20205;-75
2022/01/14 06:10:34;;;;;;;36.87;17.93;;;;;;;-3.22;100.00;96968.06;5108927;28;20193;-53
2022/01/14 06:12:59;;;;;;;40.87;19.07;;;;;;;-3.21;100.00;96970.47;5109193;28;20200;-53
2022/01/14 06:15:24;;;;;;;36.67;18.40;;;;;;;-3.20;100.00;96973.94;5108738;28;20209;-57
2022/01/14 06:17:50;;;;;;;33.70;17.50;;;;;;;-3.16;100.00;96972.31;5112378;28;20262;-58
2022/01/14 06:20:15;;;;;;;31.13;16.93;;;;;;;-3.12;100.00;96974.16;5112290;28;20196;-57
2022/01/14 06:22:43;;;;;;;37.30;16.87;;;;;;;-3.11;100.00;96961.56;5112291;28;20226;-56
2022/01/14 06:25:09;;;;;;;30.27;15.73;;;;;;;-3.09;100.00;96964.78;5112711;28;20192;-58
2022/01/14 06:27:34;;;;;;;29.57;15.33;;;;;;;-3.10;100.00;96969.31;5112798;28;20573;-58
2022/01/14 06:30:01;;;;;;;27.30;15.83;;;;;;;-3.08;100.00;96972.53;5112462;28;20200;-55
2022/01/14 06:32:26;;;;;;;32.23;16.03;;;;;;;-3.05;100.00;96968.50;5112766;28;20188;-57
2022/01/14 06:34:51;;;;;;;32.83;16.60;;;;;;;-3.05;100.00;96963.97;5112344;28;20307;-56
2022/01/14 06:37:17;;;;;;;26.77;15.43;;;;;;;-3.03;100.00;96955.66;5112566;28;20242;-58
2022/01/14 06:39:42;;;;;;;29.97;15.90;;;;;;;-3.05;100.00;96957.81;5111989;28;20249;-56
2022/01/14 06:42:08;;;;;;;31.20;15.30;;;;;;;-3.06;100.00;96961.56;5111672;28;20234;-57
2022/01/14 06:44:34;;;;;;;24.70;13.70;;;;;;;-3.09;100.00;96962.13;5112118;28;20208;-57
2022/01/14 06:46:59;;;;;;;28.87;14.83;;;;;;;-3.12;100.00;96951.97;5111978;28;20216;-55
2022/01/14 06:49:24;;;;;;;29.30;14.27;;;;;;;-3.12;100.00;96944.78;5111902;28;20200;-59
2022/01/14 06:51:49;;;;;;;28.67;14.67;;;;;;;-3.12;100.00;96951.97;5112409;28;20192;-56
2022/01/14 06:54:15;;;;;;;32.87;14.90;;;;;;;-3.10;100.00;96939.94;5096489;28;20212;-56
2022/01/14 06:56:40;;;;;;;29.23;14.23;;;;;;;-3.05;100.00;96939.09;5111723;28;20201;-58
2022/01/14 06:59:06;;;;;;;24.00;13.73;;;;;;;-3.03;100.00;96928.97;5112591;28;20191;-54
2022/01/14 07:01:31;;;;;;;28.40;13.90;;;;;;;-3.03;100.00;96934.31;5111591;28;20204;-57
2022/01/14 07:03:56;;;;;;;31.63;14.17;;;;;;;-3.02;100.00;96935.88;5112108;28;20192;-58
2022/01/14 07:06:22;;;;;;;28.90;14.07;;;;;;;-2.97;100.00;96942.00;5111521;28;20211;-63
2022/01/14 07:08:47;;;;;;;29.10;13.93;;;;;;;-2.72;100.00;96946.31;5111534;28;20192;-58
2022/01/14 07:11:14;;;;;;;26.33;14.20;;;;;;;-2.29;100.00;96961.44;5111932;28;20196;-57
2022/01/14 07:13:39;;;;;;;35.87;14.60;;;;;;;-1.79;100.00;96953.63;5111706;28;20528;-58
2022/01/14 07:16:05;;;;;;;27.73;14.37;;;;;;;-1.34;100.00;96946.88;5111585;28;20218;-59
2022/01/14 07:18:31;;;;;;;27.83;15.47;;;;;;;-0.81;100.00;96953.56;5111499;28;20192;-58
2022/01/14 07:20:56;;;;;;;28.90;14.37;;;;;;;-0.23;100.00;96946.69;5111503;28;20648;-58
2022/01/14 07:23:21;;;;;;;24.47;13.70;;;;;;;0.30;100.00;96950.50;5111927;28;20186;-53
2022/01/14 07:25:46;;;;;;;26.27;14.47;;;;;;;1.01;100.00;96955.94;5111335;28;20299;-52
2022/01/14 07:28:12;;;;;;;29.03;15.23;;;;;;;1.48;100.00;96955.34;5110795;28;20191;-55
2022/01/14 07:30:37;;;;;;;27.07;14.17;;;;;;;1.96;100.00;96966.22;5111539;28;20210;-57
2022/01/14 07:33:02;;;;;;;25.37;14.33;;;;;;;2.48;100.00;96968.81;5111745;28;20255;-56
2022/01/14 07:35:28;;;;;;;23.30;13.50;;;;;;;2.98;100.00;96971.94;5110770;28;20212;-57
2022/01/14 07:37:53;;;;;;;25.20;14.17;;;;;;;3.46;100.00;96984.19;5111333;28;20203;-56
2022/01/14 07:40:18;;;;;;;19.37;12.70;;;;;;;3.90;100.00;96988.47;5111521;28;20196;-56
2022/01/14 07:42:44;;;;;;;19.83;12.70;;;;;;;3.73;100.00;96993.06;5111308;28;20200;-57
2022/01/14 07:45:10;;;;;;;21.77;13.30;;;;;;;3.66;100.00;96993.56;5110996;28;20270;-54
2022/01/14 07:47:35;;;;;;;19.20;12.60;;;;;;;3.74;100.00;96990.06;5111037;28;20205;-53
2022/01/14 07:50:00;;;;;;;20.07;13.17;;;;;;;4.29;100.00;96990.09;5111186;28;20193;-53
2022/01/14 07:52:26;;;;;;;20.43;13.03;;;;;;;4.34;100.00;96987.22;5110930;28;20199;-53
2022/01/14 07:54:51;;;;;;;18.57;12.00;;;;;;;4.93;100.00;96988.81;5110906;28;20213;-53
2022/01/14 07:57:18;;;;;;;17.00;12.07;;;;;;;5.26;100.00;96981.59;5110587;28;20202;-53
2022/01/14 07:59:43;;;;;;;15.33;11.03;;;;;;;5.47;100.00;96987.81;5111048;28;20549;-53
2022/01/14 08:02:10;;;;;;;17.87;11.80;;;;;;;5.72;100.00;96990.28;5111211;28;20188;-57
2022/01/14 08:04:37;;;;;;;18.73;12.50;;;;;;;6.18;100.00;96991.94;5111185;28;20200;-68
2022/01/14 08:07:09;;;;;;;17.67;12.63;;;;;;;5.91;100.00;97000.69;5111224;28;20227;-64
2022/01/14 08:09:43;;;;;;;23.93;12.70;;;;;;;5.93;100.00;96995.72;5110889;28;20241;-64
2022/01/14 08:12:12;;;;;;;21.23;12.17;;;;;;;6.33;100.00;96988.59;5110781;28;20196;-65
2022/01/14 08:14:38;;;;;;;15.50;11.17;;;;;;;6.65;100.00;96991.25;5110741;28;20222;-66
2022/01/14 08:17:04;;;;;;;17.73;11.73;;;;;;;6.58;100.00;96991.00;5110624;28;20299;-65
2022/01/14 08:19:33;;;;;;;16.03;11.30;;;;;;;6.71;100.00;96994.53;5110664;28;20265;-51
2022/01/14 08:22:06;;;;;;;16.30;10.57;;;;;;;6.61;100.00;97001.19;5111068;28;20188;-52
2022/01/14 08:24:32;;;;;;;13.73;10.37;;;;;;;7.11;100.00;96998.13;5093998;28;20177;-54
2022/01/14 08:26:57;;;;;;;13.20;9.70;;;;;;;7.09;100.00;96992.25;5111070;28;20300;-53
2022/01/14 08:29:23;;;;;;;12.07;9.37;;;;;;;7.38;99.43;96997.41;5110222;28;20244;-53
2022/01/14 08:31:49;;;;;;;11.67;9.33;;;;;;;7.42;98.85;96995.59;5093564;28;20319;-56
2022/01/14 08:34:17;;;;;;;12.27;9.13;;;;;;;7.45;96.31;96992.19;5093457;28;20213;-52
2022/01/14 08:36:43;;;;;;;13.33;9.47;;;;;;;7.51;98.02;96990.81;5110414;28;20259;-52
2022/01/14 08:39:08;;;;;;;12.97;9.60;;;;;;;8.07;95.67;96989.69;5109854;28;20286;-57
2022/01/14 08:41:33;;;;;;;12.60;8.77;;;;;;;8.36;91.81;96986.63;5109244;28;20197;-57
2022/01/14 08:44:00;;;;;;;14.63;8.37;;;;;;;8.23;90.43;96978.88;5110320;28;20203;-59
2022/01/14 08:46:27;;;;;;;11.50;8.40;;;;;;;8.16;89.84;96984.88;5093037;28;20192;-57
2022/01/14 08:48:54;;;;;;;12.70;9.57;;;;;;;8.13;90.83;96980.16;5093195;28;20198;-57
2022/01/14 08:51:20;;;;;;;11.33;8.37;;;;;;;8.42;90.41;96984.44;5093574;28;20195;-60
2022/01/14 08:53:46;;;;;;;12.63;9.23;;;;;;;8.79;87.78;96974.88;5092788;28;20211;-57
2022/01/14 08:56:11;;;;;;;12.27;8.50;;;;;;;9.16;87.75;96978.84;5093572;28;20265;-57
2022/01/14 08:58:36;;;;;;;12.47;9.27;;;;;;;9.23;83.60;96968.91;5109794;28;20218;-65
2022/01/14 09:01:02;;;;;;;12.87;9.10;;;;;;;9.21;85.72;96970.38;5110055;28;20204;-69
2022/01/14 09:03:27;;;;;;;13.07;9.53;;;;;;;8.95;86.86;96973.72;5092869;28;20196;-63
2022/01/14 09:05:53;;;;;;;12.47;9.30;;;;;;;8.88;86.02;96973.53;5109804;28;20200;-61
2022/01/14 09:08:18;;;;;;;12.07;9.00;;;;;;;9.23;85.74;96963.47;5109920;28;20199;-64
2022/01/14 09:10:44;;;;;;;14.37;9.87;;;;;;;8.81;85.41;96983.44;5109794;28;20276;-64
2022/01/14 09:13:09;;;;;;;12.00;9.43;;;;;;;9.34;86.94;96969.13;5109710;28;20200;-66
2022/01/14 09:15:36;;;;;;;12.10;8.97;;;;;;;9.91;80.88;96972.69;5093119;28;20218;-57
2022/01/14 09:18:02;;;;;;;13.47;9.20;;;;;;;9.52;81.74;96976.56;5109970;28;20299;-65
2022/01/14 09:20:28;;;;;;;11.93;8.97;;;;;;;9.84;79.95;96969.81;5093042;28;20256;-65
2022/01/14 09:22:57;;;;;;;12.77;9.33;;;;;;;10.07;78.17;96978.09;5109825;28;20200;-65
2022/01/14 09:25:22;;;;;;;11.87;9.37;;;;;;;9.58;79.52;96974.34;5109939;28;20176;-65
2022/01/14 09:27:50;;;;;;;11.07;9.20;;;;;;;9.67;80.76;96985.81;5092287;28;20202;-64
2022/01/14 09:30:16;;;;;;;11.70;9.17;;;;;;;9.55;77.84;96981.28;5109736;28;20215;-65
2022/01/14 09:32:41;;;;;;;12.47;9.80;;;;;;;10.07;78.96;96981.63;5092887;28;20192;-58
2022/01/14 09:35:08;;;;;;;13.30;9.30;;;;;;;10.20;76.56;96984.19;5109476;28;20246;-58
2022/01/14 09:37:34;;;;;;;12.10;9.23;;;;;;;9.58;77.69;96979.81;5092698;28;20192;-66
2022/01/14 09:40:00;;;;;;;13.50;8.37;;;;;;;9.80;79.32;96974.41;5092444;28;20203;-66
2022/01/14 09:42:26;;;;;;;11.83;9.40;;;;;;;10.21;77.31;96980.31;5109455;28;20196;-68
2022/01/14 09:44:51;;;;;;;10.60;8.13;;;;;;;10.32;73.05;96965.72;5092793;28;20331;-66
2022/01/14 09:47:18;;;;;;;15.27;9.17;;;;;;;10.36;72.24;96972.03;5092537;28;20200;-66
2022/01/14 09:49:45;;;;;;;11.10;8.83;;;;;;;10.19;72.61;96972.47;5109265;28;20193;-66
2022/01/14 09:52:12;;;;;;;11.10;8.27;;;;;;;10.62;74.92;96969.38;5111752;28;20197;-57
2022/01/14 09:54:38;;;;;;;10.60;8.37;;;;;;;11.10;70.73;96973.25;5112753;28;20253;-57
2022/01/14 09:57:03;;;;;;;21.97;15.03;;;;;;;10.90;69.17;96975.31;5113397;28;20208;-58
2022/01/14 09:59:29;;;;;;;12.47;9.10;;;;;;;10.21;73.63;96969.38;5112528;28;20192;-57
2022/01/14 10:01:54;;;;;;;14.57;9.73;;;;;;;10.18;72.72;96970.09;5112708;28;20204;-59
2022/01/14 10:04:22;;;;;;;12.77;9.90;;;;;;;10.23;74.98;96978.78;5095894;28;20203;-59
2022/01/14 10:06:51;;;;;;;17.03;9.43;;;;;;;10.40;73.82;96972.06;5112608;28;20215;-59
2022/01/14 10:09:37;;;;;;;18.43;10.37;;;;;;;10.32;72.71;96965.72;5095469;28;20260;-59
2022/01/14 10:12:13;;;;;;;14.07;9.63;;;;;;;10.32;71.78;96964.91;5112771;28;20273;-59
2022/01/14 10:14:43;;;;;;;17.97;10.27;;;;;;;10.07;73.21;96980.84;5112289;28;20299;-60
2022/01/14 10:17:10;;;;;;;17.40;11.13;;;;;;;10.44;74.67;96962.00;5096010;28;20178;-59
2022/01/14 10:19:41;;;;;;;19.67;9.73;;;;;;;10.37;72.55;96959.19;5112936;28;20273;-58
2022/01/14 10:22:24;;;;;;;17.80;8.80;;;;;;;10.59;74.21;96952.94;5112361;28;20409;-56
2022/01/14 10:25:01;;;;;;;16.93;8.43;;;;;;;10.77;69.79;96954.78;5095087;28;20212;-59
2022/01/14 10:27:52;;;;;;;18.00;9.13;;;;;;;10.84;69.77;96954.09;5112443;28;20196;-67
2022/01/14 10:30:31;;;;;;;18.50;13.27;;;;;;;10.13;71.97;96943.13;5102958;28;20224;-55
2022/01/14 10:33:01;;;;;;;13.63;8.43;;;;;;;10.24;74.28;96946.84;5095498;28;20206;-59
2022/01/14 10:35:33;;;;;;;14.40;8.27;;;;;;;10.69;71.97;96935.91;5095876;28;20303;-60
2022/01/14 10:38:01;;;;;;;14.67;9.17;;;;;;;10.59;70.67;96945.50;5095148;28;20197;-59
2022/01/14 10:40:29;;;;;;;14.47;7.77;;;;;;;10.68;70.95;96945.25;5112213;28;20200;-59
2022/01/14 10:43:06;;;;;;;11.93;8.27;;;;;;;10.38;70.77;96947.09;5112028;28;20192;-59
2022/01/14 10:45:33;;;;;;;19.30;9.53;;;;;;;10.37;72.42;96950.97;5112188;28;20200;-66
2022/01/14 10:48:05;;;;;;;13.10;8.10;;;;;;;10.00;74.22;96948.72;5095172;28;20188;-59
2022/01/14 10:50:47;;;;;;;16.77;8.90;;;;;;;9.32;77.32;96955.88;5094700;28;20283;-59
2022/01/14 10:53:14;;;;;;;16.13;9.40;;;;;;;9.00;80.37;96961.75;5094743;28;20208;-59
2022/01/14 10:55:45;;;;;;;13.03;9.00;;;;;;;8.65;82.97;96948.09;5111729;28;20216;-58
2022/01/14 10:58:23;;;;;;;12.67;8.00;;;;;;;8.44;84.54;96955.72;5095149;28;20286;-58
2022/01/14 11:00:55;;;;;;;13.63;8.60;;;;;;;8.09;86.18;96946.59;5095030;28;20196;-58
2022/01/14 11:03:37;;;;;;;16.30;8.90;;;;;;;7.78;89.22;96943.81;5093665;28;20200;-59
2022/01/14 11:06:19;;;;;;;13.23;8.27;;;;;;;7.47;92.66;96938.25;5095408;28;20199;-65
2022/01/14 11:08:46;;;;;;;13.00;8.00;;;;;;;7.30;93.31;96941.28;5111781;28;20214;-62
2022/01/14 11:11:13;;;;;;;19.83;8.70;;;;;;;7.00;99.43;96937.28;5094292;28;20265;-60
2022/01/14 11:13:38;;;;;;;12.80;8.30;;;;;;;6.85;100.00;96935.25;5111972;28;20284;-60
2022/01/14 11:16:04;;;;;;;11.33;8.10;;;;;;;6.75;100.00;96933.00;5095000;28;20254;-61
2022/01/14 11:18:30;;;;;;;13.67;9.20;;;;;;;6.68;100.00;96935.50;5095597;28;20204;-60
2022/01/14 11:23:39;;;;;;;14.53;8.87;;;;;;;6.43;100.00;96923.03;5096060;28;20200;-67
2022/01/14 11:26:09;;;;;;;14.87;9.00;;;;;;;6.38;100.00;96915.91;5111555;28;20192;-56
2022/01/14 11:28:38;;;;;;;15.47;8.73;;;;;;;6.33;100.00;96912.63;5111479;28;20260;-56
2022/01/14 11:31:25;;;;;;;16.17;8.40;;;;;;;6.27;100.00;96914.78;5094379;28;20244;-55
2022/01/14 11:33:51;;;;;;;14.97;7.67;;;;;;;6.25;100.00;96908.13;5094361;28;20214;-56